sensor_id;sensor_type;location;lat;lon;timestamp;P1;durP1;ratioP1;P2;durP2;ratioP2
49217;SDS011;35045;51.194;7.268;2022-11-11T00:01:12;13.68;;;6.63;;
49217;SDS011;35045;51.194;7.268;2022-11-11T00:03:39;12.68;;;6.88;;
49217;SDS011;35045;51.194;7.268;2022-11-11T00:06:10;13.50;;;6.32;;
49217;SDS011;35045;51.194;7.268;2022-11-11T00:08:37;13.30;;;7.13;;
49217;SDS011;35045;51.194;7.268;2022-11-11T00:11:07;12.02;;;7.25;;
49217;SDS011;35045;51.194;7.268;2022-11-11T00:13:35;12.55;;;7.45;;
49217;SDS011;35045;51.194;7.268;2022-11-11T00:16:03;13.15;;;6.88;;
49217;SDS011;35045;51.194;7.268;2022-11-11T00:18:34;14.18;;;7.50;;
49217;SDS011;35045;51.194;7.268;2022-11-11T00:21:19;13.55;;;7.38;;
49217;SDS011;35045;51.194;7.268;2022-11-11T00:24:04;12.90;;;6.45;;
49217;SDS011;35045;51.194;7.268;2022-11-11T00:27:01;11.90;;;8.10;;
49217;SDS011;35045;51.194;7.268;2022-11-11T00:29:30;10.05;;;6.38;;
49217;SDS011;35045;51.194;7.268;2022-11-11T00:31:56;14.48;;;7.97;;
49217;SDS011;35045;51.194;7.268;2022-11-11T00:34:41;13.15;;;7.03;;
49217;SDS011;35045;51.194;7.268;2022-11-11T00:37:27;14.45;;;7.07;;
49217;SDS011;35045;51.194;7.268;2022-11-11T00:39:53;11.82;;;7.57;;
49217;SDS011;35045;51.194;7.268;2022-11-11T00:42:19;14.88;;;7.65;;
49217;SDS011;35045;51.194;7.268;2022-11-11T00:44:45;13.07;;;7.22;;
49217;SDS011;35045;51.194;7.268;2022-11-11T00:47:11;11.85;;;6.93;;
49217;SDS011;35045;51.194;7.268;2022-11-11T00:49:56;14.45;;;7.45;;
49217;SDS011;35045;51.194;7.268;2022-11-11T00:52:43;13.88;;;7.47;;
49217;SDS011;35045;51.194;7.268;2022-11-11T00:55:13;12.90;;;7.00;;
49217;SDS011;35045;51.194;7.268;2022-11-11T00:57:39;15.23;;;7.57;;
49217;SDS011;35045;51.194;7.268;2022-11-11T01:00:06;14.73;;;6.72;;
49217;SDS011;35045;51.194;7.268;2022-11-11T01:02:33;12.82;;;7.28;;
49217;SDS011;35045;51.194;7.268;2022-11-11T01:04:59;13.75;;;7.40;;
49217;SDS011;35045;51.194;7.268;2022-11-11T01:07:25;14.02;;;7.63;;
49217;SDS011;35045;51.194;7.268;2022-11-11T01:09:51;11.18;;;6.90;;
49217;SDS011;35045;51.194;7.268;2022-11-11T01:12:17;11.75;;;6.78;;
49217;SDS011;35045;51.194;7.268;2022-11-11T01:14:43;13.15;;;7.20;;
49217;SDS011;35045;51.194;7.268;2022-11-11T01:17:10;13.02;;;6.95;;
49217;SDS011;35045;51.194;7.268;2022-11-11T01:19:36;12.30;;;6.68;;
49217;SDS011;35045;51.194;7.268;2022-11-11T01:22:02;11.35;;;6.80;;
49217;SDS011;35045;51.194;7.268;2022-11-11T01:24:28;13.02;;;7.05;;
49217;SDS011;35045;51.194;7.268;2022-11-11T01:26:54;14.07;;;7.20;;
49217;SDS011;35045;51.194;7.268;2022-11-11T01:29:20;11.35;;;7.38;;
49217;SDS011;35045;51.194;7.268;2022-11-11T01:31:47;10.95;;;6.90;;
49217;SDS011;35045;51.194;7.268;2022-11-11T01:34:13;14.88;;;7.50;;
49217;SDS011;35045;51.194;7.268;2022-11-11T01:36:39;14.98;;;7.13;;
49217;SDS011;35045;51.194;7.268;2022-11-11T01:39:05;13.48;;;7.35;;
49217;SDS011;35045;51.194;7.268;2022-11-11T01:41:32;13.18;;;7.05;;
49217;SDS011;35045;51.194;7.268;2022-11-11T01:44:39;14.38;;;7.43;;
49217;SDS011;35045;51.194;7.268;2022-11-11T01:47:09;13.23;;;6.43;;
49217;SDS011;35045;51.194;7.268;2022-11-11T01:49:48;14.95;;;7.30;;
49217;SDS011;35045;51.194;7.268;2022-11-11T01:52:25;13.52;;;6.93;;
49217;SDS011;35045;51.194;7.268;2022-11-11T01:54:58;11.43;;;6.97;;
49217;SDS011;35045;51.194;7.268;2022-11-11T01:57:52;12.63;;;6.60;;
49217;SDS011;35045;51.194;7.268;2022-11-11T02:00:25;10.73;;;6.38;;
49217;SDS011;35045;51.194;7.268;2022-11-11T02:02:56;13.77;;;6.93;;
49217;SDS011;35045;51.194;7.268;2022-11-11T02:05:25;13.23;;;6.93;;
49217;SDS011;35045;51.194;7.268;2022-11-11T02:08:09;12.23;;;6.90;;
49217;SDS011;35045;51.194;7.268;2022-11-11T02:10:37;11.93;;;6.18;;
49217;SDS011;35045;51.194;7.268;2022-11-11T02:13:11;15.35;;;7.18;;
49217;SDS011;35045;51.194;7.268;2022-11-11T02:15:58;13.23;;;7.10;;
49217;SDS011;35045;51.194;7.268;2022-11-11T02:18:24;13.00;;;6.88;;
49217;SDS011;35045;51.194;7.268;2022-11-11T02:20:52;12.50;;;6.78;;
49217;SDS011;35045;51.194;7.268;2022-11-11T02:26:09;15.60;;;6.60;;
49217;SDS011;35045;51.194;7.268;2022-11-11T02:28:38;15.60;;;6.55;;
49217;SDS011;35045;51.194;7.268;2022-11-11T02:31:05;11.25;;;6.40;;
49217;SDS011;35045;51.194;7.268;2022-11-11T02:33:31;11.65;;;6.28;;
49217;SDS011;35045;51.194;7.268;2022-11-11T02:35:57;11.32;;;6.47;;
49217;SDS011;35045;51.194;7.268;2022-11-11T02:38:25;9.38;;;5.75;;
49217;SDS011;35045;51.194;7.268;2022-11-11T02:40:52;12.18;;;6.43;;
49217;SDS011;35045;51.194;7.268;2022-11-11T02:43:37;12.10;;;6.15;;
49217;SDS011;35045;51.194;7.268;2022-11-11T02:46:03;11.70;;;6.22;;
49217;SDS011;35045;51.194;7.268;2022-11-11T02:48:31;10.95;;;6.18;;
49217;SDS011;35045;51.194;7.268;2022-11-11T02:50:57;11.13;;;6.32;;
49217;SDS011;35045;51.194;7.268;2022-11-11T02:53:23;12.48;;;6.55;;
49217;SDS011;35045;51.194;7.268;2022-11-11T02:55:50;11.40;;;6.65;;
49217;SDS011;35045;51.194;7.268;2022-11-11T02:58:16;11.40;;;6.63;;
49217;SDS011;35045;51.194;7.268;2022-11-11T03:00:42;12.05;;;6.07;;
49217;SDS011;35045;51.194;7.268;2022-11-11T03:03:09;13.05;;;6.38;;
49217;SDS011;35045;51.194;7.268;2022-11-11T03:05:35;9.88;;;6.65;;
49217;SDS011;35045;51.194;7.268;2022-11-11T03:08:02;11.68;;;6.78;;
49217;SDS011;35045;51.194;7.268;2022-11-11T03:10:28;11.30;;;5.97;;
49217;SDS011;35045;51.194;7.268;2022-11-11T03:12:55;11.45;;;7.03;;
49217;SDS011;35045;51.194;7.268;2022-11-11T03:15:21;13.68;;;6.13;;
49217;SDS011;35045;51.194;7.268;2022-11-11T03:17:47;10.02;;;6.05;;
49217;SDS011;35045;51.194;7.268;2022-11-11T03:20:15;12.73;;;6.10;;
49217;SDS011;35045;51.194;7.268;2022-11-11T03:23:03;12.45;;;6.72;;
49217;SDS011;35045;51.194;7.268;2022-11-11T03:25:31;12.05;;;6.60;;
49217;SDS011;35045;51.194;7.268;2022-11-11T03:30:33;10.73;;;6.30;;
49217;SDS011;35045;51.194;7.268;2022-11-11T03:33:00;12.45;;;6.75;;
49217;SDS011;35045;51.194;7.268;2022-11-11T03:35:27;11.90;;;6.35;;
49217;SDS011;35045;51.194;7.268;2022-11-11T03:37:53;13.25;;;6.07;;
49217;SDS011;35045;51.194;7.268;2022-11-11T03:40:38;11.55;;;5.53;;
49217;SDS011;35045;51.194;7.268;2022-11-11T03:43:05;12.50;;;5.45;;
49217;SDS011;35045;51.194;7.268;2022-11-11T03:45:31;10.48;;;6.28;;
49217;SDS011;35045;51.194;7.268;2022-11-11T03:47:57;12.98;;;6.25;;
49217;SDS011;35045;51.194;7.268;2022-11-11T03:50:24;10.38;;;5.72;;
49217;SDS011;35045;51.194;7.268;2022-11-11T03:52:50;13.23;;;6.28;;
49217;SDS011;35045;51.194;7.268;2022-11-11T03:55:16;12.00;;;6.45;;
49217;SDS011;35045;51.194;7.268;2022-11-11T03:57:43;11.70;;;6.15;;
49217;SDS011;35045;51.194;7.268;2022-11-11T04:00:14;10.25;;;5.43;;
49217;SDS011;35045;51.194;7.268;2022-11-11T04:02:42;11.48;;;5.75;;
49217;SDS011;35045;51.194;7.268;2022-11-11T04:05:27;13.00;;;6.43;;
49217;SDS011;35045;51.194;7.268;2022-11-11T04:08:13;11.52;;;5.85;;
49217;SDS011;35045;51.194;7.268;2022-11-11T04:10:59;13.30;;;7.05;;
49217;SDS011;35045;51.194;7.268;2022-11-11T04:13:30;11.63;;;6.95;;
49217;SDS011;35045;51.194;7.268;2022-11-11T04:16:16;9.75;;;6.72;;
49217;SDS011;35045;51.194;7.268;2022-11-11T04:18:43;9.20;;;5.68;;
49217;SDS011;35045;51.194;7.268;2022-11-11T04:21:27;11.60;;;6.20;;
49217;SDS011;35045;51.194;7.268;2022-11-11T04:24:13;11.27;;;5.93;;
49217;SDS011;35045;51.194;7.268;2022-11-11T04:27:00;13.73;;;6.35;;
49217;SDS011;35045;51.194;7.268;2022-11-11T04:29:27;10.68;;;6.25;;
49217;SDS011;35045;51.194;7.268;2022-11-11T04:31:55;9.85;;;5.82;;
49217;SDS011;35045;51.194;7.268;2022-11-11T04:34:57;11.13;;;6.22;;
49217;SDS011;35045;51.194;7.268;2022-11-11T04:37:45;11.52;;;5.75;;
49217;SDS011;35045;51.194;7.268;2022-11-11T04:40:14;10.68;;;5.70;;
49217;SDS011;35045;51.194;7.268;2022-11-11T04:42:59;12.65;;;5.68;;
49217;SDS011;35045;51.194;7.268;2022-11-11T04:45:25;9.32;;;5.57;;
49217;SDS011;35045;51.194;7.268;2022-11-11T04:50:40;9.70;;;5.75;;
49217;SDS011;35045;51.194;7.268;2022-11-11T04:53:12;12.68;;;6.68;;
49217;SDS011;35045;51.194;7.268;2022-11-11T04:55:40;11.50;;;6.45;;
49217;SDS011;35045;51.194;7.268;2022-11-11T04:58:27;12.38;;;6.10;;
49217;SDS011;35045;51.194;7.268;2022-11-11T05:00:59;11.70;;;6.57;;
49217;SDS011;35045;51.194;7.268;2022-11-11T05:03:25;11.73;;;5.70;;
49217;SDS011;35045;51.194;7.268;2022-11-11T05:05:56;10.70;;;5.90;;
49217;SDS011;35045;51.194;7.268;2022-11-11T05:08:43;13.75;;;6.93;;
49217;SDS011;35045;51.194;7.268;2022-11-11T05:11:24;11.25;;;6.32;;
49217;SDS011;35045;51.194;7.268;2022-11-11T05:13:52;10.90;;;6.63;;
49217;SDS011;35045;51.194;7.268;2022-11-11T05:16:39;12.70;;;7.53;;
49217;SDS011;35045;51.194;7.268;2022-11-11T05:19:27;14.13;;;7.40;;
49217;SDS011;35045;51.194;7.268;2022-11-11T05:24:53;12.52;;;6.40;;
49217;SDS011;35045;51.194;7.268;2022-11-11T05:27:38;11.05;;;6.60;;
49217;SDS011;35045;51.194;7.268;2022-11-11T05:30:05;11.85;;;6.32;;
49217;SDS011;35045;51.194;7.268;2022-11-11T05:32:32;13.98;;;6.93;;
49217;SDS011;35045;51.194;7.268;2022-11-11T05:34:59;14.27;;;6.95;;
49217;SDS011;35045;51.194;7.268;2022-11-11T05:37:25;11.27;;;6.07;;
49217;SDS011;35045;51.194;7.268;2022-11-11T05:39:51;10.20;;;5.80;;
49217;SDS011;35045;51.194;7.268;2022-11-11T05:42:17;11.32;;;6.40;;
49217;SDS011;35045;51.194;7.268;2022-11-11T05:44:43;12.18;;;6.28;;
49217;SDS011;35045;51.194;7.268;2022-11-11T05:47:10;9.45;;;6.10;;
49217;SDS011;35045;51.194;7.268;2022-11-11T05:49:36;10.73;;;6.15;;
49217;SDS011;35045;51.194;7.268;2022-11-11T05:52:13;10.35;;;6.18;;
49217;SDS011;35045;51.194;7.268;2022-11-11T05:54:41;12.63;;;7.28;;
49217;SDS011;35045;51.194;7.268;2022-11-11T05:57:08;10.25;;;5.70;;
49217;SDS011;35045;51.194;7.268;2022-11-11T05:59:34;9.80;;;5.75;;
49217;SDS011;35045;51.194;7.268;2022-11-11T06:02:00;10.48;;;5.50;;
49217;SDS011;35045;51.194;7.268;2022-11-11T06:04:27;11.00;;;6.03;;
49217;SDS011;35045;51.194;7.268;2022-11-11T06:06:53;10.85;;;5.55;;
49217;SDS011;35045;51.194;7.268;2022-11-11T06:09:19;12.55;;;5.97;;
49217;SDS011;35045;51.194;7.268;2022-11-11T06:11:46;11.77;;;5.78;;
49217;SDS011;35045;51.194;7.268;2022-11-11T06:14:12;11.00;;;6.13;;
49217;SDS011;35045;51.194;7.268;2022-11-11T06:16:38;10.02;;;5.75;;
49217;SDS011;35045;51.194;7.268;2022-11-11T06:19:04;11.32;;;5.15;;
49217;SDS011;35045;51.194;7.268;2022-11-11T06:21:30;9.95;;;5.43;;
49217;SDS011;35045;51.194;7.268;2022-11-11T06:24:17;8.90;;;5.75;;
49217;SDS011;35045;51.194;7.268;2022-11-11T06:26:47;11.00;;;5.38;;
49217;SDS011;35045;51.194;7.268;2022-11-11T06:29:13;9.63;;;5.80;;
49217;SDS011;35045;51.194;7.268;2022-11-11T06:31:39;11.45;;;5.88;;
49217;SDS011;35045;51.194;7.268;2022-11-11T06:34:06;11.88;;;6.03;;
49217;SDS011;35045;51.194;7.268;2022-11-11T06:36:32;13.15;;;6.10;;
49217;SDS011;35045;51.194;7.268;2022-11-11T06:38:58;10.43;;;5.32;;
49217;SDS011;35045;51.194;7.268;2022-11-11T06:41:24;11.32;;;5.40;;
49217;SDS011;35045;51.194;7.268;2022-11-11T06:43:52;10.02;;;5.25;;
49217;SDS011;35045;51.194;7.268;2022-11-11T06:46:22;11.43;;;5.88;;
49217;SDS011;35045;51.194;7.268;2022-11-11T06:48:49;9.18;;;5.20;;
49217;SDS011;35045;51.194;7.268;2022-11-11T06:51:15;10.02;;;5.13;;
49217;SDS011;35045;51.194;7.268;2022-11-11T06:53:42;9.45;;;5.15;;
49217;SDS011;35045;51.194;7.268;2022-11-11T06:56:08;12.00;;;5.65;;
49217;SDS011;35045;51.194;7.268;2022-11-11T06:58:37;10.35;;;5.60;;
49217;SDS011;35045;51.194;7.268;2022-11-11T07:01:04;9.98;;;5.20;;
49217;SDS011;35045;51.194;7.268;2022-11-11T07:03:31;9.40;;;5.28;;
49217;SDS011;35045;51.194;7.268;2022-11-11T07:06:01;10.82;;;5.47;;
49217;SDS011;35045;51.194;7.268;2022-11-11T07:08:31;10.98;;;5.25;;
49217;SDS011;35045;51.194;7.268;2022-11-11T07:10:57;9.57;;;5.13;;
49217;SDS011;35045;51.194;7.268;2022-11-11T07:13:25;9.13;;;5.32;;
49217;SDS011;35045;51.194;7.268;2022-11-11T07:15:51;10.13;;;5.43;;
49217;SDS011;35045;51.194;7.268;2022-11-11T07:18:18;10.60;;;5.07;;
49217;SDS011;35045;51.194;7.268;2022-11-11T07:20:44;8.18;;;4.70;;
49217;SDS011;35045;51.194;7.268;2022-11-11T07:23:10;9.57;;;5.25;;
49217;SDS011;35045;51.194;7.268;2022-11-11T07:25:36;8.40;;;5.13;;
49217;SDS011;35045;51.194;7.268;2022-11-11T07:28:02;8.98;;;4.78;;
49217;SDS011;35045;51.194;7.268;2022-11-11T07:30:28;8.85;;;4.88;;
49217;SDS011;35045;51.194;7.268;2022-11-11T07:32:55;9.63;;;5.35;;
49217;SDS011;35045;51.194;7.268;2022-11-11T07:35:21;9.48;;;5.20;;
49217;SDS011;35045;51.194;7.268;2022-11-11T07:37:47;9.73;;;5.47;;
49217;SDS011;35045;51.194;7.268;2022-11-11T07:40:14;8.82;;;5.10;;
49217;SDS011;35045;51.194;7.268;2022-11-11T07:42:42;12.38;;;5.28;;
49217;SDS011;35045;51.194;7.268;2022-11-11T07:45:08;9.63;;;5.05;;
49217;SDS011;35045;51.194;7.268;2022-11-11T07:47:36;8.35;;;5.07;;
49217;SDS011;35045;51.194;7.268;2022-11-11T07:50:02;7.90;;;4.97;;
49217;SDS011;35045;51.194;7.268;2022-11-11T07:52:32;8.52;;;4.65;;
49217;SDS011;35045;51.194;7.268;2022-11-11T07:54:58;8.63;;;5.03;;
49217;SDS011;35045;51.194;7.268;2022-11-11T07:57:24;9.98;;;5.30;;
49217;SDS011;35045;51.194;7.268;2022-11-11T07:59:51;9.88;;;4.88;;
49217;SDS011;35045;51.194;7.268;2022-11-11T08:02:17;9.52;;;5.28;;
49217;SDS011;35045;51.194;7.268;2022-11-11T08:04:43;10.27;;;5.20;;
49217;SDS011;35045;51.194;7.268;2022-11-11T08:07:10;9.70;;;5.22;;
49217;SDS011;35045;51.194;7.268;2022-11-11T08:09:36;7.85;;;4.63;;
49217;SDS011;35045;51.194;7.268;2022-11-11T08:12:02;8.27;;;4.82;;
49217;SDS011;35045;51.194;7.268;2022-11-11T08:14:47;9.45;;;4.70;;
49217;SDS011;35045;51.194;7.268;2022-11-11T08:17:13;9.95;;;5.35;;
49217;SDS011;35045;51.194;7.268;2022-11-11T08:19:39;8.88;;;4.90;;
49217;SDS011;35045;51.194;7.268;2022-11-11T08:22:05;11.68;;;5.32;;
49217;SDS011;35045;51.194;7.268;2022-11-11T08:24:32;8.15;;;4.78;;
49217;SDS011;35045;51.194;7.268;2022-11-11T08:27:18;8.27;;;4.53;;
49217;SDS011;35045;51.194;7.268;2022-11-11T08:29:44;7.45;;;4.43;;
49217;SDS011;35045;51.194;7.268;2022-11-11T08:32:10;11.23;;;4.85;;
49217;SDS011;35045;51.194;7.268;2022-11-11T08:34:36;9.25;;;5.03;;
49217;SDS011;35045;51.194;7.268;2022-11-11T08:37:02;9.20;;;4.65;;
49217;SDS011;35045;51.194;7.268;2022-11-11T08:39:28;9.23;;;4.90;;
49217;SDS011;35045;51.194;7.268;2022-11-11T08:41:54;11.18;;;5.43;;
49217;SDS011;35045;51.194;7.268;2022-11-11T08:44:20;10.50;;;5.38;;
49217;SDS011;35045;51.194;7.268;2022-11-11T08:46:47;8.55;;;4.65;;
49217;SDS011;35045;51.194;7.268;2022-11-11T08:49:13;11.05;;;5.20;;
49217;SDS011;35045;51.194;7.268;2022-11-11T08:51:39;10.07;;;5.05;;
49217;SDS011;35045;51.194;7.268;2022-11-11T08:54:09;8.07;;;5.18;;
49217;SDS011;35045;51.194;7.268;2022-11-11T08:56:35;9.82;;;5.25;;
49217;SDS011;35045;51.194;7.268;2022-11-11T08:59:01;10.15;;;5.45;;
49217;SDS011;35045;51.194;7.268;2022-11-11T09:01:27;9.35;;;5.30;;
49217;SDS011;35045;51.194;7.268;2022-11-11T09:03:54;10.45;;;5.43;;
49217;SDS011;35045;51.194;7.268;2022-11-11T09:06:22;11.10;;;5.53;;
49217;SDS011;35045;51.194;7.268;2022-11-11T09:08:48;8.85;;;4.88;;
49217;SDS011;35045;51.194;7.268;2022-11-11T09:11:15;11.35;;;5.43;;
49217;SDS011;35045;51.194;7.268;2022-11-11T09:13:41;10.18;;;5.32;;
49217;SDS011;35045;51.194;7.268;2022-11-11T09:16:07;9.20;;;4.97;;
49217;SDS011;35045;51.194;7.268;2022-11-11T09:18:34;9.77;;;5.35;;
49217;SDS011;35045;51.194;7.268;2022-11-11T09:21:00;9.90;;;5.97;;
49217;SDS011;35045;51.194;7.268;2022-11-11T09:23:26;9.40;;;5.53;;
49217;SDS011;35045;51.194;7.268;2022-11-11T09:25:52;9.50;;;5.88;;
49217;SDS011;35045;51.194;7.268;2022-11-11T09:28:19;9.10;;;5.18;;
49217;SDS011;35045;51.194;7.268;2022-11-11T09:30:45;10.18;;;5.95;;
49217;SDS011;35045;51.194;7.268;2022-11-11T09:33:11;10.23;;;5.68;;
49217;SDS011;35045;51.194;7.268;2022-11-11T09:35:40;9.95;;;5.47;;
49217;SDS011;35045;51.194;7.268;2022-11-11T09:38:07;9.60;;;5.97;;
49217;SDS011;35045;51.194;7.268;2022-11-11T09:43:42;9.90;;;4.93;;
49217;SDS011;35045;51.194;7.268;2022-11-11T09:46:23;9.60;;;5.00;;
49217;SDS011;35045;51.194;7.268;2022-11-11T09:54:29;7.72;;;4.50;;
49217;SDS011;35045;51.194;7.268;2022-11-11T09:57:04;8.38;;;4.63;;
49217;SDS011;35045;51.194;7.268;2022-11-11T09:59:41;8.65;;;4.28;;
49217;SDS011;35045;51.194;7.268;2022-11-11T10:02:17;8.10;;;4.03;;
49217;SDS011;35045;51.194;7.268;2022-11-11T10:05:05;8.57;;;4.55;;
49217;SDS011;35045;51.194;7.268;2022-11-11T10:07:43;7.80;;;4.40;;
49217;SDS011;35045;51.194;7.268;2022-11-11T10:10:20;8.87;;;4.57;;
49217;SDS011;35045;51.194;7.268;2022-11-11T10:12:49;7.30;;;4.43;;
49217;SDS011;35045;51.194;7.268;2022-11-11T10:15:22;8.95;;;4.60;;
49217;SDS011;35045;51.194;7.268;2022-11-11T10:17:59;8.90;;;4.72;;
49217;SDS011;35045;51.194;7.268;2022-11-11T10:20:27;8.13;;;4.50;;
49217;SDS011;35045;51.194;7.268;2022-11-11T10:22:59;8.40;;;4.45;;
49217;SDS011;35045;51.194;7.268;2022-11-11T10:25:28;7.18;;;3.60;;
49217;SDS011;35045;51.194;7.268;2022-11-11T10:27:56;7.53;;;3.95;;
49217;SDS011;35045;51.194;7.268;2022-11-11T10:30:27;7.97;;;4.30;;
49217;SDS011;35045;51.194;7.268;2022-11-11T10:32:58;8.43;;;4.13;;
49217;SDS011;35045;51.194;7.268;2022-11-11T10:35:27;7.43;;;4.10;;
49217;SDS011;35045;51.194;7.268;2022-11-11T10:41:09;6.82;;;3.80;;
49217;SDS011;35045;51.194;7.268;2022-11-11T10:43:41;8.45;;;4.38;;
49217;SDS011;35045;51.194;7.268;2022-11-11T10:46:22;7.20;;;3.92;;
49217;SDS011;35045;51.194;7.268;2022-11-11T10:51:26;6.35;;;3.28;;
49217;SDS011;35045;51.194;7.268;2022-11-11T10:54:12;6.43;;;3.33;;
49217;SDS011;35045;51.194;7.268;2022-11-11T10:56:45;7.20;;;3.15;;
49217;SDS011;35045;51.194;7.268;2022-11-11T10:59:25;5.75;;;2.95;;
49217;SDS011;35045;51.194;7.268;2022-11-11T11:01:59;8.40;;;3.13;;
49217;SDS011;35045;51.194;7.268;2022-11-11T11:07:14;6.38;;;3.15;;
49217;SDS011;35045;51.194;7.268;2022-11-11T11:12:30;8.27;;;3.45;;
49217;SDS011;35045;51.194;7.268;2022-11-11T11:15:03;7.40;;;3.72;;
49217;SDS011;35045;51.194;7.268;2022-11-11T11:17:35;6.97;;;3.17;;
49217;SDS011;35045;51.194;7.268;2022-11-11T11:20:12;6.97;;;3.30;;
49217;SDS011;35045;51.194;7.268;2022-11-11T11:22:44;6.97;;;3.10;;
49217;SDS011;35045;51.194;7.268;2022-11-11T11:25:20;5.25;;;2.65;;
49217;SDS011;35045;51.194;7.268;2022-11-11T11:27:50;6.25;;;2.95;;
49217;SDS011;35045;51.194;7.268;2022-11-11T11:30:21;6.63;;;3.03;;
49217;SDS011;35045;51.194;7.268;2022-11-11T11:32:56;7.28;;;3.17;;
49217;SDS011;35045;51.194;7.268;2022-11-11T11:35:28;5.72;;;3.13;;
49217;SDS011;35045;51.194;7.268;2022-11-11T11:38:06;7.25;;;3.25;;
49217;SDS011;35045;51.194;7.268;2022-11-11T11:40:46;8.10;;;3.70;;
49217;SDS011;35045;51.194;7.268;2022-11-11T11:43:32;7.07;;;3.00;;
49217;SDS011;35045;51.194;7.268;2022-11-11T11:46:01;6.60;;;3.30;;
49217;SDS011;35045;51.194;7.268;2022-11-11T11:48:41;7.05;;;3.40;;
49217;SDS011;35045;51.194;7.268;2022-11-11T11:51:27;11.88;;;3.50;;
49217;SDS011;35045;51.194;7.268;2022-11-11T11:55:19;6.22;;;2.55;;
49217;SDS011;35045;51.194;7.268;2022-11-11T12:00:13;8.10;;;3.03;;
49217;SDS011;35045;51.194;7.268;2022-11-11T12:05:25;5.78;;;2.47;;
49217;SDS011;35045;51.194;7.268;2022-11-11T12:11:23;5.57;;;2.55;;
49217;SDS011;35045;51.194;7.268;2022-11-11T12:14:28;5.32;;;2.10;;
49217;SDS011;35045;51.194;7.268;2022-11-11T12:17:12;6.38;;;2.47;;
49217;SDS011;35045;51.194;7.268;2022-11-11T12:20:01;6.30;;;2.58;;
49217;SDS011;35045;51.194;7.268;2022-11-11T12:30:49;6.10;;;2.85;;
49217;SDS011;35045;51.194;7.268;2022-11-11T12:33:30;5.40;;;2.35;;
49217;SDS011;35045;51.194;7.268;2022-11-11T12:36:11;5.18;;;2.30;;
49217;SDS011;35045;51.194;7.268;2022-11-11T12:42:09;6.30;;;2.70;;
49217;SDS011;35045;51.194;7.268;2022-11-11T12:44:44;6.82;;;2.50;;
49217;SDS011;35045;51.194;7.268;2022-11-11T12:50:32;6.55;;;2.20;;
49217;SDS011;35045;51.194;7.268;2022-11-11T12:58:41;5.47;;;2.50;;
49217;SDS011;35045;51.194;7.268;2022-11-11T13:01:19;5.47;;;1.92;;
49217;SDS011;35045;51.194;7.268;2022-11-11T13:04:07;6.57;;;2.40;;
49217;SDS011;35045;51.194;7.268;2022-11-11T13:09:43;6.30;;;2.33;;
49217;SDS011;35045;51.194;7.268;2022-11-11T13:12:37;6.57;;;2.25;;
49217;SDS011;35045;51.194;7.268;2022-11-11T13:15:21;7.53;;;2.97;;
49217;SDS011;35045;51.194;7.268;2022-11-11T13:17:49;7.15;;;2.33;;
49217;SDS011;35045;51.194;7.268;2022-11-11T13:20:34;6.03;;;2.30;;
49217;SDS011;35045;51.194;7.268;2022-11-11T13:23:27;5.65;;;2.30;;
49217;SDS011;35045;51.194;7.268;2022-11-11T13:25:57;7.32;;;2.58;;
49217;SDS011;35045;51.194;7.268;2022-11-11T13:28:29;6.55;;;2.75;;
49217;SDS011;35045;51.194;7.268;2022-11-11T13:33:45;5.70;;;2.65;;
49217;SDS011;35045;51.194;7.268;2022-11-11T13:36:14;8.02;;;3.20;;
49217;SDS011;35045;51.194;7.268;2022-11-11T13:38:44;5.85;;;2.47;;
49217;SDS011;35045;51.194;7.268;2022-11-11T13:41:25;7.57;;;2.85;;
49217;SDS011;35045;51.194;7.268;2022-11-11T13:44:01;6.03;;;2.50;;
49217;SDS011;35045;51.194;7.268;2022-11-11T13:51:59;8.02;;;2.72;;
49217;SDS011;35045;51.194;7.268;2022-11-11T13:54:30;6.03;;;2.60;;
49217;SDS011;35045;51.194;7.268;2022-11-11T13:57:00;6.22;;;2.83;;
49217;SDS011;35045;51.194;7.268;2022-11-11T14:00:22;5.30;;;2.25;;
49217;SDS011;35045;51.194;7.268;2022-11-11T14:05:47;6.43;;;2.45;;
49217;SDS011;35045;51.194;7.268;2022-11-11T14:13:49;5.90;;;2.17;;
49217;SDS011;35045;51.194;7.268;2022-11-11T14:21:59;7.65;;;2.40;;
49217;SDS011;35045;51.194;7.268;2022-11-11T14:29:36;6.70;;;2.25;;
49217;SDS011;35045;51.194;7.268;2022-11-11T14:32:21;4.63;;;1.90;;
49217;SDS011;35045;51.194;7.268;2022-11-11T14:40:29;5.90;;;2.50;;
49217;SDS011;35045;51.194;7.268;2022-11-11T14:42:58;5.60;;;2.05;;
49217;SDS011;35045;51.194;7.268;2022-11-11T14:51:51;7.05;;;2.08;;
49217;SDS011;35045;51.194;7.268;2022-11-11T14:54:16;5.88;;;2.20;;
49217;SDS011;35045;51.194;7.268;2022-11-11T14:56:57;6.68;;;2.22;;
49217;SDS011;35045;51.194;7.268;2022-11-11T14:59:27;5.20;;;2.00;;
49217;SDS011;35045;51.194;7.268;2022-11-11T15:01:56;7.72;;;1.95;;
49217;SDS011;35045;51.194;7.268;2022-11-11T15:04:24;6.40;;;1.77;;
49217;SDS011;35045;51.194;7.268;2022-11-11T15:06:57;4.82;;;1.75;;
49217;SDS011;35045;51.194;7.268;2022-11-11T15:15:26;4.60;;;1.58;;
49217;SDS011;35045;51.194;7.268;2022-11-11T15:21:10;3.30;;;1.48;;
49217;SDS011;35045;51.194;7.268;2022-11-11T15:26:35;5.78;;;1.77;;
49217;SDS011;35045;51.194;7.268;2022-11-11T15:34:45;6.63;;;2.05;;
49217;SDS011;35045;51.194;7.268;2022-11-11T15:37:22;5.63;;;1.88;;
49217;SDS011;35045;51.194;7.268;2022-11-11T15:39:51;4.65;;;1.70;;
49217;SDS011;35045;51.194;7.268;2022-11-11T15:42:30;5.70;;;2.40;;
49217;SDS011;35045;51.194;7.268;2022-11-11T15:45:03;4.55;;;1.88;;
49217;SDS011;35045;51.194;7.268;2022-11-11T15:47:43;6.50;;;2.20;;
49217;SDS011;35045;51.194;7.268;2022-11-11T15:52:53;6.50;;;2.35;;
49217;SDS011;35045;51.194;7.268;2022-11-11T15:55:30;4.25;;;1.80;;
49217;SDS011;35045;51.194;7.268;2022-11-11T16:00:54;6.20;;;2.42;;
49217;SDS011;35045;51.194;7.268;2022-11-11T16:03:31;5.55;;;2.15;;
49217;SDS011;35045;51.194;7.268;2022-11-11T16:06:08;6.38;;;2.30;;
49217;SDS011;35045;51.194;7.268;2022-11-11T16:08:39;6.82;;;2.60;;
49217;SDS011;35045;51.194;7.268;2022-11-11T16:11:08;6.20;;;2.50;;
49217;SDS011;35045;51.194;7.268;2022-11-11T16:13:39;6.68;;;2.92;;
49217;SDS011;35045;51.194;7.268;2022-11-11T16:18:51;7.93;;;3.10;;
49217;SDS011;35045;51.194;7.268;2022-11-11T16:21:22;7.90;;;3.13;;
49217;SDS011;35045;51.194;7.268;2022-11-11T16:23:54;7.97;;;3.17;;
49217;SDS011;35045;51.194;7.268;2022-11-11T16:26:21;7.28;;;3.13;;
49217;SDS011;35045;51.194;7.268;2022-11-11T16:28:53;8.70;;;3.42;;
49217;SDS011;35045;51.194;7.268;2022-11-11T16:34:00;8.13;;;3.55;;
49217;SDS011;35045;51.194;7.268;2022-11-11T16:37:03;8.30;;;3.05;;
49217;SDS011;35045;51.194;7.268;2022-11-11T16:39:32;9.27;;;3.15;;
49217;SDS011;35045;51.194;7.268;2022-11-11T16:42:00;7.65;;;2.88;;
49217;SDS011;35045;51.194;7.268;2022-11-11T16:44:32;7.80;;;3.15;;
49217;SDS011;35045;51.194;7.268;2022-11-11T16:46:59;7.55;;;2.67;;
49217;SDS011;35045;51.194;7.268;2022-11-11T16:52:06;7.60;;;2.83;;
49217;SDS011;35045;51.194;7.268;2022-11-11T16:54:40;6.40;;;2.67;;
49217;SDS011;35045;51.194;7.268;2022-11-11T16:57:20;7.05;;;2.80;;
49217;SDS011;35045;51.194;7.268;2022-11-11T16:59:50;6.60;;;3.05;;
49217;SDS011;35045;51.194;7.268;2022-11-11T17:02:20;6.93;;;2.85;;
49217;SDS011;35045;51.194;7.268;2022-11-11T17:04:48;7.38;;;3.38;;
49217;SDS011;35045;51.194;7.268;2022-11-11T17:07:30;7.15;;;2.92;;
49217;SDS011;35045;51.194;7.268;2022-11-11T17:10:08;9.85;;;3.65;;
49217;SDS011;35045;51.194;7.268;2022-11-11T17:12:35;6.55;;;3.35;;
49217;SDS011;35045;51.194;7.268;2022-11-11T17:15:03;8.45;;;2.92;;
49217;SDS011;35045;51.194;7.268;2022-11-11T17:17:40;8.57;;;3.20;;
49217;SDS011;35045;51.194;7.268;2022-11-11T17:20:12;7.15;;;3.58;;
49217;SDS011;35045;51.194;7.268;2022-11-11T17:22:47;8.27;;;3.63;;